createdAt,value
2018-06-05T00:01:41.136Z,62.38
2018-06-05T00:04:07.752Z,61.77
2018-06-05T00:06:34.364Z,61.84
2018-06-05T00:09:00.980Z,62.40
2018-06-05T00:11:27.595Z,61.63
2018-06-05T00:13:54.216Z,61.46
2018-06-05T00:16:20.827Z,62.23
2018-06-05T00:18:47.472Z,61.55
2018-06-05T00:21:14.092Z,62.20
2018-06-05T00:23:40.703Z,61.57
2018-06-05T00:26:07.328Z,61.66
2018-06-05T00:28:34.812Z,61.65
2018-06-05T00:31:01.914Z,62.36
2018-06-05T00:33:28.560Z,62.35
2018-06-05T00:35:56.175Z,61.59
2018-06-05T00:38:23.783Z,62.28
2018-06-05T00:40:51.331Z,62.57
2018-06-05T00:43:18.852Z,61.63
2018-06-05T00:45:49.908Z,61.41
2018-06-05T00:48:16.644Z,62.37
2018-06-05T00:50:43.289Z,61.60
2018-06-05T00:53:09.897Z,62.44
2018-06-05T00:55:36.515Z,62.41
2018-06-05T00:58:03.132Z,62.81
2018-06-05T01:00:30.683Z,62.43
2018-06-05T01:02:57.293Z,62.41
2018-06-05T01:05:23.947Z,62.12
2018-06-05T01:07:51.479Z,62.07
2018-06-05T01:10:18.099Z,62.34
2018-06-05T01:12:44.715Z,61.61
2018-06-05T01:15:11.333Z,61.80
2018-06-05T01:17:38.727Z,61.61
2018-06-05T01:20:05.345Z,62.42
2018-06-05T01:22:32.936Z,62.03
2018-06-05T01:24:59.590Z,61.72
2018-06-05T01:27:26.211Z,62.67
2018-06-05T01:29:53.759Z,61.58
2018-06-05T01:32:20.380Z,62.20
2018-06-05T01:34:48.044Z,61.79
2018-06-05T01:37:14.668Z,61.71
2018-06-05T01:39:41.286Z,61.95
2018-06-05T01:42:07.908Z,61.75
2018-06-05T01:44:34.532Z,61.91
2018-06-05T01:47:01.158Z,62.50
2018-06-05T01:49:33.582Z,62.21
2018-06-05T01:52:00.199Z,62.07
2018-06-05T01:54:26.817Z,62.57
2018-06-05T01:56:54.313Z,62.25
2018-06-05T01:59:21.191Z,61.99
2018-06-05T02:01:47.916Z,61.84
2018-06-05T02:04:14.532Z,61.88
2018-06-05T02:06:41.156Z,62.59
2018-06-05T02:09:07.783Z,61.96
2018-06-05T02:11:34.413Z,61.93
2018-06-05T02:14:01.035Z,62.35
2018-06-05T02:16:27.676Z,61.91
2018-06-05T02:18:54.325Z,61.85
2018-06-05T02:21:21.033Z,62.52
2018-06-05T02:23:47.655Z,62.20
2018-06-05T02:26:14.280Z,62.61
2018-06-05T02:28:41.003Z,62.70
2018-06-05T02:31:07.709Z,62.02
2018-06-05T02:33:34.341Z,61.97
2018-06-05T02:36:01.006Z,62.77
2018-06-05T02:38:27.639Z,62.74
2018-06-05T02:40:54.304Z,62.83
2018-06-05T02:43:20.962Z,61.87
2018-06-05T02:45:47.625Z,62.71
2018-06-05T02:48:14.289Z,62.04
2018-06-05T02:50:40.912Z,61.88
2018-06-05T02:53:07.544Z,62.29
2018-06-05T02:55:34.167Z,61.73
2018-06-05T02:58:00.797Z,62.58
2018-06-05T03:00:27.420Z,62.07
2018-06-05T03:02:54.093Z,62.06
2018-06-05T03:05:20.733Z,62.13
2018-06-05T03:07:47.353Z,62.31
2018-06-05T03:10:14.008Z,62.71
2018-06-05T03:12:40.636Z,62.56
2018-06-05T03:15:07.284Z,62.70
2018-06-05T03:17:33.904Z,61.78
2018-06-05T03:20:00.655Z,62.00
2018-06-05T03:22:27.276Z,61.83
2018-06-05T03:24:53.947Z,62.52
2018-06-05T03:27:20.560Z,61.98
2018-06-05T03:29:47.184Z,62.64
2018-06-05T03:32:13.840Z,62.51
2018-06-05T03:34:40.464Z,62.18
2018-06-05T03:37:07.780Z,62.49
2018-06-05T03:39:34.403Z,62.43
2018-06-05T03:42:01.018Z,62.78
2018-06-05T03:44:27.680Z,62.65
2018-06-05T03:46:54.445Z,62.11
2018-06-05T03:49:21.094Z,62.42
2018-06-05T03:51:47.747Z,62.52
2018-06-05T03:54:14.364Z,61.86
2018-06-05T03:56:41.042Z,62.62
2018-06-05T03:59:07.699Z,61.96
2018-06-05T04:01:34.320Z,62.28
2018-06-05T04:04:00.980Z,62.28
2018-06-05T04:06:27.600Z,61.93
2018-06-05T04:08:54.324Z,62.92
2018-06-05T04:11:20.948Z,62.67
2018-06-05T04:13:47.612Z,62.35
2018-06-05T04:16:15.090Z,62.11
2018-06-05T04:18:41.752Z,61.98
2018-06-05T04:21:08.420Z,62.51
2018-06-05T04:23:35.046Z,62.19
2018-06-05T04:26:01.709Z,62.41
2018-06-05T04:28:28.392Z,61.94
2018-06-05T04:30:55.014Z,62.60
2018-06-05T04:33:21.656Z,61.74
2018-06-05T04:35:48.284Z,62.59
2018-06-05T04:38:14.901Z,61.91
2018-06-05T04:40:41.528Z,61.64
2018-06-05T04:43:08.168Z,62.55
2018-06-05T04:45:34.801Z,61.97
2018-06-05T04:48:01.425Z,61.65
2018-06-05T04:50:28.100Z,62.49
2018-06-05T04:52:54.736Z,62.01
2018-06-05T04:55:21.351Z,62.06
2018-06-05T04:57:47.986Z,61.82
2018-06-05T05:00:14.623Z,62.60
2018-06-05T05:02:41.248Z,61.87
2018-06-05T05:05:07.875Z,62.14
2018-06-05T05:07:34.499Z,61.88
2018-06-05T05:10:01.110Z,62.67
2018-06-05T05:12:27.732Z,61.82
2018-06-05T05:14:54.349Z,61.71
2018-06-05T05:17:20.973Z,62.45
2018-06-05T05:19:47.603Z,61.96
2018-06-05T05:22:14.223Z,61.95
2018-06-05T05:24:40.839Z,62.69
2018-06-05T05:27:07.469Z,62.56
2018-06-05T05:29:34.096Z,62.60
2018-06-05T05:32:00.802Z,62.62
2018-06-05T05:34:27.424Z,62.40
2018-06-05T05:36:54.084Z,62.71
2018-06-05T05:39:20.709Z,61.99
2018-06-05T05:41:47.341Z,62.76
2018-06-05T05:44:13.964Z,62.64
2018-06-05T05:46:40.593Z,62.09
2018-06-05T05:49:07.215Z,62.00
2018-06-05T05:51:33.833Z,62.03
2018-06-05T05:54:00.452Z,62.56
2018-06-05T05:56:27.433Z,62.06
2018-06-05T05:58:54.064Z,62.68
2018-06-05T06:01:20.687Z,62.07
2018-06-05T06:03:47.321Z,62.64
2018-06-05T06:06:13.984Z,62.21
2018-06-05T06:08:40.650Z,62.04
2018-06-05T06:11:07.289Z,62.88
2018-06-05T06:13:33.961Z,62.91
2018-06-05T06:16:00.584Z,62.93
2018-06-05T06:18:27.220Z,62.90
2018-06-05T06:20:53.840Z,62.84
2018-06-05T06:23:20.464Z,62.64
2018-06-05T06:25:47.084Z,62.32
2018-06-05T06:28:13.705Z,62.85
2018-06-05T06:30:40.328Z,63.12
2018-06-05T06:33:06.948Z,62.19
2018-06-05T06:35:33.570Z,62.18
2018-06-05T06:38:00.188Z,62.28
2018-06-05T06:40:26.924Z,62.79
2018-06-05T06:42:53.548Z,62.47
2018-06-05T06:45:20.336Z,62.84
2018-06-05T06:47:46.960Z,62.22
2018-06-05T06:50:13.624Z,62.78
2018-06-05T06:52:40.247Z,62.36
2018-06-05T06:55:06.900Z,62.83
2018-06-05T06:57:33.548Z,62.36
2018-06-05T07:00:00.216Z,62.24
2018-06-05T07:02:26.844Z,62.07
2018-06-05T07:04:53.464Z,61.95
2018-06-05T07:07:20.080Z,62.74
2018-06-05T07:09:46.743Z,62.96
2018-06-05T07:12:13.441Z,62.82
2018-06-05T07:14:40.059Z,62.73
2018-06-05T07:17:07.061Z,62.40
2018-06-05T07:19:33.680Z,62.26
2018-06-05T07:22:00.300Z,62.46
2018-06-05T07:24:26.925Z,62.32
2018-06-05T07:26:53.544Z,62.72
2018-06-05T07:29:20.169Z,62.79
2018-06-05T07:31:46.920Z,62.77
2018-06-05T07:34:13.544Z,62.74
2018-06-05T07:36:40.212Z,62.80
2018-06-05T07:39:07.220Z,62.52
2018-06-05T07:41:33.977Z,62.99
2018-06-05T07:44:00.648Z,63.05
2018-06-05T07:46:27.334Z,62.32
2018-06-05T07:48:53.949Z,62.35
2018-06-05T07:51:20.608Z,63.00
2018-06-05T07:53:47.232Z,62.08
2018-06-05T07:56:13.856Z,62.20
2018-06-05T07:58:40.525Z,62.54
2018-06-05T08:01:07.149Z,62.20
2018-06-05T08:03:33.808Z,62.62
2018-06-05T08:06:00.623Z,63.12
2018-06-05T08:08:27.252Z,62.26
2018-06-05T08:10:53.872Z,62.84
2018-06-05T08:13:20.495Z,62.86
2018-06-05T08:15:47.116Z,62.38
2018-06-05T08:18:13.788Z,62.19
2018-06-05T08:20:40.411Z,62.95
2018-06-05T08:23:07.124Z,62.68
2018-06-05T08:25:33.755Z,62.31
2018-06-05T08:28:00.409Z,62.62
2018-06-05T08:30:27.038Z,62.23
2018-06-05T08:32:53.663Z,62.44
2018-06-05T08:35:20.293Z,62.65
2018-06-05T08:37:46.950Z,63.13
2018-06-05T08:40:13.617Z,62.86
2018-06-05T08:42:40.248Z,62.36
2018-06-05T08:45:06.906Z,62.95
2018-06-05T08:47:33.524Z,62.32
2018-06-05T08:50:00.188Z,62.37
2018-06-05T08:52:26.805Z,62.65
2018-06-05T08:54:53.416Z,62.32
2018-06-05T08:57:20.040Z,63.11
2018-06-05T08:59:46.693Z,63.13
2018-06-05T09:02:13.312Z,62.21
2018-06-05T09:04:39.975Z,62.24
2018-06-05T09:07:06.596Z,62.76
2018-06-05T09:09:33.220Z,62.66
2018-06-05T09:11:59.845Z,62.82
2018-06-05T09:14:26.472Z,62.89
2018-06-05T09:16:53.096Z,62.97
2018-06-05T09:19:19.713Z,63.09
2018-06-05T09:21:46.344Z,62.22
2018-06-05T09:24:12.971Z,62.51
2018-06-05T09:26:39.605Z,62.77
2018-06-05T09:29:06.271Z,62.61
2018-06-05T09:31:32.928Z,63.04
2018-06-05T09:33:59.588Z,62.83
2018-06-05T09:36:26.204Z,62.58
2018-06-05T09:38:52.820Z,63.16
2018-06-05T09:41:19.445Z,62.46
2018-06-05T09:43:46.069Z,62.35
2018-06-05T09:46:12.758Z,62.38
2018-06-05T09:48:39.408Z,62.43
2018-06-05T09:51:06.112Z,62.87
2018-06-05T09:53:32.745Z,63.35
2018-06-05T09:55:59.368Z,62.23
2018-06-05T09:58:26.108Z,62.68
2018-06-05T10:00:53.017Z,63.01
2018-06-05T10:03:20.080Z,63.10
2018-06-05T10:05:46.700Z,62.87
2018-06-05T10:08:13.410Z,62.18
2018-06-05T10:10:40.025Z,63.20
2018-06-05T10:13:06.640Z,63.06
2018-06-05T10:15:33.267Z,63.29
2018-06-05T10:17:59.892Z,63.18
2018-06-05T10:20:26.777Z,63.27
2018-06-05T10:22:53.455Z,63.12
2018-06-05T10:25:20.072Z,62.37
2018-06-05T10:27:46.766Z,62.99
2018-06-05T10:30:13.391Z,63.14
2018-06-05T10:32:40.052Z,62.50
2018-06-05T10:35:06.681Z,63.16
2018-06-05T10:37:33.340Z,62.46
2018-06-05T10:39:59.965Z,63.21
2018-06-05T10:42:26.593Z,62.32
2018-06-05T10:44:53.217Z,63.18
2018-06-05T10:47:19.833Z,63.02
2018-06-05T10:49:46.458Z,63.03
2018-06-05T10:52:13.081Z,62.40
2018-06-05T10:54:39.714Z,62.36
2018-06-05T10:57:06.341Z,63.16
2018-06-05T10:59:32.965Z,62.36
2018-06-05T11:01:59.672Z,62.60
2018-06-05T11:04:26.291Z,62.95
2018-06-05T11:06:52.908Z,62.29
2018-06-05T11:09:19.577Z,62.91
2018-06-05T11:11:46.244Z,63.10
2018-06-05T11:14:12.865Z,63.16
2018-06-05T11:16:39.491Z,62.35
2018-06-05T11:19:06.107Z,63.05
2018-06-05T11:21:32.725Z,63.10
2018-06-05T11:23:59.347Z,62.48
2018-06-05T11:26:26.012Z,63.13
2018-06-05T11:28:53.616Z,62.78
2018-06-05T11:31:20.378Z,62.92
2018-06-05T11:33:47.037Z,62.48
2018-06-05T11:36:13.753Z,62.84
2018-06-05T11:38:40.373Z,62.49
2018-06-05T11:41:07.005Z,62.37
2018-06-05T11:43:33.629Z,62.41
2018-06-05T11:46:00.296Z,62.34
2018-06-05T11:48:26.949Z,63.16
2018-06-05T11:50:53.689Z,62.39
2018-06-05T11:53:20.308Z,62.77
2018-06-05T11:55:46.972Z,62.70
2018-06-05T11:58:13.593Z,63.10
2018-06-05T12:00:40.239Z,62.41
2018-06-05T12:03:06.866Z,62.97
2018-06-05T12:05:33.515Z,62.27
2018-06-05T12:08:00.139Z,62.84
2018-06-05T12:10:26.760Z,63.23
2018-06-05T12:12:53.425Z,62.32
2018-06-05T12:15:20.044Z,62.41
2018-06-05T12:17:46.686Z,62.53
2018-06-05T12:20:13.344Z,63.16
2018-06-05T12:22:39.969Z,63.12
2018-06-05T12:25:06.592Z,63.08
2018-06-05T12:27:33.212Z,63.06
2018-06-05T12:29:59.837Z,63.12
2018-06-05T12:32:26.491Z,62.42
2018-06-05T12:34:53.113Z,62.41
2018-06-05T12:37:19.729Z,63.14
2018-06-05T12:39:46.476Z,62.69
2018-06-05T12:42:13.097Z,62.76
2018-06-05T12:44:39.735Z,62.85
2018-06-05T12:47:06.360Z,62.45
2018-06-05T12:49:32.976Z,63.25
2018-06-05T12:51:59.601Z,62.42
2018-06-05T12:54:26.221Z,62.42
2018-06-05T12:56:52.836Z,63.14
2018-06-05T12:59:19.468Z,62.68
2018-06-05T13:01:46.125Z,62.32
2018-06-05T13:04:12.778Z,63.07
2018-06-05T13:06:39.435Z,62.52
2018-06-05T13:09:06.733Z,63.09
2018-06-05T13:11:33.349Z,62.35
2018-06-05T13:14:01.070Z,62.69
2018-06-05T13:16:27.712Z,63.31
2018-06-05T13:18:54.373Z,63.42
2018-06-05T13:21:21.000Z,62.44
2018-06-05T13:23:47.668Z,62.21
2018-06-05T13:26:14.289Z,62.55
2018-06-05T13:28:40.911Z,62.53
2018-06-05T13:31:07.624Z,63.08
2018-06-05T13:33:34.253Z,62.54
2018-06-05T13:36:01.701Z,62.88
2018-06-05T13:38:28.325Z,62.85
2018-06-05T13:40:55.901Z,62.81
2018-06-05T13:43:22.525Z,63.20
2018-06-05T13:45:49.152Z,62.64
2018-06-05T13:48:15.785Z,62.49
2018-06-05T13:50:42.411Z,63.39
2018-06-05T13:53:09.064Z,63.24
2018-06-05T13:55:35.748Z,62.25
2018-06-05T13:58:02.377Z,62.51
2018-06-05T14:00:29.001Z,63.13
2018-06-05T14:02:55.625Z,62.69
2018-06-05T14:05:22.247Z,63.54
2018-06-05T14:07:48.880Z,62.67
2018-06-05T14:10:15.504Z,63.35
2018-06-05T14:12:42.182Z,62.73
2018-06-05T14:15:09.556Z,62.52
2018-06-05T14:17:36.221Z,62.42
2018-06-05T14:20:02.892Z,62.61
2018-06-05T14:22:29.573Z,62.50
2018-06-05T14:24:56.194Z,62.41
2018-06-05T14:27:22.827Z,60.77
2018-06-05T14:29:49.457Z,60.86
2018-06-05T14:32:16.125Z,60.77
2018-06-05T14:34:42.753Z,60.88
2018-06-05T14:37:09.373Z,60.98
2018-06-05T14:39:36.037Z,61.14
2018-06-05T14:42:02.661Z,61.30
2018-06-05T14:44:29.341Z,61.21
2018-06-05T14:46:55.965Z,60.27
2018-06-05T14:49:22.589Z,61.38
2018-06-05T14:51:49.253Z,60.42
2018-06-05T14:54:15.888Z,60.38
2018-06-05T14:56:42.517Z,60.55
2018-06-05T14:59:09.953Z,60.38
2018-06-05T15:01:36.576Z,61.21
2018-06-05T15:04:03.197Z,61.31
2018-06-05T15:06:29.813Z,60.64
2018-06-05T15:08:56.435Z,61.48
2018-06-05T15:11:23.101Z,60.93
2018-06-05T15:13:49.733Z,60.68
2018-06-05T15:16:16.421Z,61.09
2018-06-05T15:18:43.049Z,60.60
2018-06-05T15:21:09.665Z,61.27
2018-06-05T15:23:36.331Z,61.04
2018-06-05T15:26:02.953Z,61.54
2018-06-05T15:28:29.581Z,61.67
2018-06-05T15:30:57.191Z,61.84
2018-06-05T15:33:23.815Z,61.35
2018-06-05T15:35:50.477Z,60.73
2018-06-05T15:38:17.140Z,60.73
2018-06-05T15:40:43.792Z,61.87
2018-06-05T15:43:10.448Z,61.66
2018-06-05T15:45:37.078Z,61.04
2018-06-05T15:48:03.722Z,61.08
2018-06-05T15:50:30.414Z,61.64
2018-06-05T15:52:57.036Z,61.73
2018-06-05T15:55:23.656Z,61.49
2018-06-05T15:57:50.278Z,62.06
2018-06-05T16:00:16.901Z,61.65
2018-06-05T16:02:43.528Z,61.79
2018-06-05T16:05:10.149Z,61.71
2018-06-05T16:07:36.777Z,61.65
2018-06-05T16:10:03.440Z,61.16
2018-06-05T16:12:30.065Z,61.10
2018-06-05T16:14:56.693Z,61.34
2018-06-05T16:17:23.352Z,60.86
2018-06-05T16:19:49.989Z,62.12
2018-06-05T16:22:16.611Z,61.21
2018-06-05T16:24:43.237Z,61.82
2018-06-05T16:27:09.940Z,61.98
2018-06-05T16:29:36.559Z,62.07
2018-06-05T16:32:03.184Z,61.58
2018-06-05T16:34:29.844Z,60.91
2018-06-05T16:36:56.465Z,61.31
2018-06-05T16:39:23.097Z,61.07
2018-06-05T16:41:49.728Z,61.26
2018-06-05T16:44:16.393Z,61.93
2018-06-05T16:46:43.017Z,61.55
2018-06-05T16:49:09.673Z,61.87
2018-06-05T16:51:36.304Z,61.96
2018-06-05T16:54:02.928Z,62.28
2018-06-05T16:56:29.560Z,61.58
2018-06-05T16:58:56.184Z,62.09
2018-06-05T17:01:22.829Z,62.00
2018-06-05T17:03:49.462Z,62.36
2018-06-05T17:06:16.097Z,62.16
2018-06-05T17:08:42.812Z,61.14
2018-06-05T17:11:09.442Z,62.13
2018-06-05T17:13:36.069Z,61.18
2018-06-05T17:16:02.712Z,61.91
2018-06-05T17:18:29.360Z,62.20
2018-06-05T17:20:55.989Z,62.25
2018-06-05T17:23:22.633Z,61.33
2018-06-05T17:25:49.264Z,62.19
2018-06-05T17:28:15.902Z,61.87
2018-06-05T17:30:42.645Z,61.51
2018-06-05T17:33:09.286Z,61.70
2018-06-05T17:35:35.909Z,61.61
2018-06-05T17:38:02.537Z,62.27
2018-06-05T17:40:29.206Z,62.30
2018-06-05T17:42:55.816Z,61.38
2018-06-05T17:45:22.452Z,62.34
2018-06-05T17:47:49.079Z,62.24
2018-06-05T17:50:15.707Z,61.75
2018-06-05T17:52:42.324Z,61.90
2018-06-05T17:55:08.951Z,62.22
2018-06-05T17:57:35.590Z,62.35
2018-06-05T18:00:02.253Z,61.74
2018-06-05T18:02:28.889Z,61.64
2018-06-05T18:04:57.645Z,62.36
2018-06-05T18:07:24.340Z,61.89
2018-06-05T18:09:50.985Z,61.67
2018-06-05T18:12:18.593Z,61.83
2018-06-05T18:14:45.256Z,61.82
2018-06-05T18:17:12.053Z,62.44
2018-06-05T18:19:38.909Z,62.51
2018-06-05T18:22:05.573Z,61.72
2018-06-05T18:24:32.201Z,62.48
2018-06-05T18:26:59.136Z,61.76
2018-06-05T18:29:25.866Z,61.64
2018-06-05T18:31:54.463Z,62.59
2018-06-05T18:34:21.120Z,62.42
2018-06-05T18:36:47.859Z,62.46
2018-06-05T18:39:14.524Z,61.89
2018-06-05T18:41:41.157Z,62.65
2018-06-05T18:44:07.784Z,62.38
2018-06-05T18:46:34.577Z,61.87
2018-06-05T18:49:01.243Z,62.75
2018-06-05T18:51:27.884Z,62.69
2018-06-05T18:53:54.652Z,62.28
2018-06-05T18:56:21.324Z,62.69
2018-06-05T18:58:47.957Z,62.62
2018-06-05T19:01:14.629Z,61.79
2018-06-05T19:03:41.304Z,61.85
2018-06-05T19:06:07.999Z,61.83
2018-06-05T19:08:34.636Z,61.92
2018-06-05T19:11:01.297Z,62.00
2018-06-05T19:13:27.930Z,62.22
2018-06-05T19:15:54.566Z,62.07
2018-06-05T19:18:21.221Z,62.18
2018-06-05T19:20:47.853Z,62.90
2018-06-05T19:23:14.593Z,62.58
2018-06-05T19:25:41.246Z,61.69
2018-06-05T19:28:07.927Z,62.17
2018-06-05T19:30:34.633Z,62.08
2018-06-05T19:33:01.246Z,63.00
2018-06-05T19:35:27.901Z,62.39
2018-06-05T19:37:54.525Z,63.06
2018-06-05T19:40:21.213Z,62.29
2018-06-05T19:42:47.881Z,62.57
2018-06-05T19:45:14.614Z,63.22
2018-06-05T19:47:41.253Z,62.29
2018-06-05T19:50:07.900Z,62.91
2018-06-05T19:52:34.534Z,62.35
2018-06-05T19:55:01.212Z,62.41
2018-06-05T19:57:27.842Z,62.99
2018-06-05T19:59:54.473Z,63.00
2018-06-05T20:02:22.044Z,62.25
2018-06-05T20:04:48.685Z,62.47
2018-06-05T20:07:15.353Z,61.99
2018-06-05T20:09:42.016Z,62.73
2018-06-05T20:12:08.684Z,62.30
2018-06-05T20:14:35.336Z,63.12
2018-06-05T20:17:02.425Z,62.46
2018-06-05T20:19:29.084Z,63.17
2018-06-05T20:21:55.789Z,62.86
2018-06-05T20:24:22.516Z,62.31
2018-06-05T20:26:49.142Z,62.62
2018-06-05T20:29:15.772Z,62.63
2018-06-05T20:31:42.449Z,62.70
2018-06-05T20:34:09.122Z,62.66
2018-06-05T20:36:35.790Z,61.50
2018-06-05T20:39:02.470Z,62.40
2018-06-05T20:41:29.121Z,60.82
2018-06-05T20:43:55.793Z,62.26
2018-06-05T20:46:22.424Z,60.60
2018-06-05T20:48:49.143Z,61.48
2018-06-05T20:51:15.767Z,62.08
2018-06-05T20:53:42.436Z,61.74
2018-06-05T20:56:09.066Z,60.85
2018-06-05T20:58:35.733Z,61.43
2018-06-05T21:01:02.356Z,62.06
2018-06-05T21:03:28.985Z,61.28
2018-06-05T21:05:56.641Z,61.30
2018-06-05T21:08:23.303Z,61.30
2018-06-05T21:10:49.971Z,61.54
2018-06-05T21:13:16.595Z,61.71
2018-06-05T21:15:43.266Z,60.52
2018-06-05T21:18:09.904Z,60.21
2018-06-05T21:20:36.531Z,60.09
2018-06-05T21:23:03.161Z,60.81
2018-06-05T21:25:29.781Z,60.15
2018-06-05T21:27:56.416Z,60.98
2018-06-05T21:30:23.063Z,61.70
2018-06-05T21:32:49.701Z,60.83
2018-06-05T21:35:16.381Z,61.17
2018-06-05T21:37:43.005Z,59.99
2018-06-05T21:40:09.676Z,60.39
2018-06-05T21:42:36.372Z,60.50
2018-06-05T21:45:03.024Z,61.54
2018-06-05T21:47:29.648Z,61.54
2018-06-05T21:49:56.289Z,61.18
2018-06-05T21:52:22.915Z,60.63
2018-06-05T21:54:49.545Z,60.54
2018-06-05T21:57:16.168Z,61.57
2018-06-05T21:59:42.797Z,60.54
2018-06-05T22:04:35.541Z,60.28
2018-06-05T22:07:02.165Z,59.17
2018-06-05T22:09:28.789Z,61.01
2018-06-05T22:11:55.408Z,61.41
2018-06-05T22:14:22.023Z,59.73
2018-06-05T22:19:15.743Z,61.44
2018-06-05T22:21:42.380Z,59.66
2018-06-05T22:24:09.004Z,59.75
2018-06-05T22:26:35.621Z,59.59
2018-06-05T22:29:02.252Z,61.13
2018-06-05T22:31:28.886Z,60.99
2018-06-05T22:33:55.516Z,60.60
2018-06-05T22:36:22.932Z,60.11
2018-06-05T22:38:49.556Z,59.97
2018-06-05T22:41:16.172Z,60.26
2018-06-05T22:43:42.935Z,60.73
2018-06-05T22:46:09.553Z,59.30
2018-06-05T22:48:36.181Z,59.30
2018-06-05T22:51:02.797Z,59.05
2018-06-05T22:53:29.421Z,60.37
2018-06-05T22:55:56.042Z,59.39
2018-06-05T22:58:22.668Z,60.08
2018-06-05T23:00:49.313Z,60.05
2018-06-05T23:03:15.930Z,60.15
2018-06-05T23:05:42.557Z,59.89
2018-06-05T23:08:09.191Z,60.41
2018-06-05T23:10:35.812Z,58.89
2018-06-05T23:13:02.465Z,59.64
2018-06-05T23:15:29.085Z,59.79
2018-06-05T23:17:55.701Z,60.46
2018-06-05T23:20:22.324Z,59.26
2018-06-05T23:22:48.946Z,59.17
2018-06-05T23:25:15.568Z,59.47
2018-06-05T23:27:42.192Z,60.06
2018-06-05T23:30:08.808Z,59.45
2018-06-05T23:32:35.437Z,58.66
2018-06-05T23:35:02.976Z,58.65
2018-06-05T23:37:29.596Z,59.33
2018-06-05T23:39:56.219Z,59.56
2018-06-05T23:42:22.893Z,59.26
2018-06-05T23:44:49.488Z,58.91
2018-06-05T23:47:16.107Z,59.31
2018-06-05T23:49:42.771Z,59.25
2018-06-05T23:52:09.395Z,58.10
2018-06-05T23:54:36.103Z,59.62
2018-06-05T23:57:02.727Z,57.93
2018-06-05T23:59:29.349Z,58.96
